sensor_id;sensor_type;location;lat;lon;timestamp;P1;durP1;ratioP1;P2;durP2;ratioP2
22005;SDS011;11167;46.988;15.470;2024-02-21T00:00:07;6.33;;;4.33;;
22005;SDS011;11167;46.988;15.470;2024-02-21T00:02:11;5.78;;;4.08;;
22005;SDS011;11167;46.988;15.470;2024-02-21T00:04:12;7.85;;;4.45;;
22005;SDS011;11167;46.988;15.470;2024-02-21T00:06:13;7.40;;;4.70;;
22005;SDS011;11167;46.988;15.470;2024-02-21T00:08:14;6.83;;;4.40;;
22005;SDS011;11167;46.988;15.470;2024-02-21T00:10:15;7.22;;;4.78;;
22005;SDS011;11167;46.988;15.470;2024-02-21T00:12:17;6.53;;;4.00;;
22005;SDS011;11167;46.988;15.470;2024-02-21T00:14:19;6.08;;;4.75;;
22005;SDS011;11167;46.988;15.470;2024-02-21T00:16:20;7.53;;;4.85;;
22005;SDS011;11167;46.988;15.470;2024-02-21T00:18:21;5.97;;;4.50;;
22005;SDS011;11167;46.988;15.470;2024-02-21T00:20:22;6.47;;;4.65;;
22005;SDS011;11167;46.988;15.470;2024-02-21T00:22:25;6.65;;;4.53;;
22005;SDS011;11167;46.988;15.470;2024-02-21T00:24:28;5.97;;;4.40;;
22005;SDS011;11167;46.988;15.470;2024-02-21T00:26:29;6.37;;;4.78;;
22005;SDS011;11167;46.988;15.470;2024-02-21T00:28:30;6.10;;;4.50;;
22005;SDS011;11167;46.988;15.470;2024-02-21T00:30:32;5.55;;;4.28;;
22005;SDS011;11167;46.988;15.470;2024-02-21T00:32:33;5.97;;;4.50;;
22005;SDS011;11167;46.988;15.470;2024-02-21T00:34:35;7.25;;;4.50;;
22005;SDS011;11167;46.988;15.470;2024-02-21T00:36:36;5.22;;;4.17;;
22005;SDS011;11167;46.988;15.470;2024-02-21T00:38:38;4.92;;;4.00;;
22005;SDS011;11167;46.988;15.470;2024-02-21T00:40:39;8.28;;;4.60;;
22005;SDS011;11167;46.988;15.470;2024-02-21T00:42:40;6.42;;;4.45;;
22005;SDS011;11167;46.988;15.470;2024-02-21T00:44:42;6.10;;;4.45;;
22005;SDS011;11167;46.988;15.470;2024-02-21T00:46:43;6.55;;;4.80;;
22005;SDS011;11167;46.988;15.470;2024-02-21T00:48:44;6.90;;;4.53;;
22005;SDS011;11167;46.988;15.470;2024-02-21T00:50:45;5.80;;;4.30;;
22005;SDS011;11167;46.988;15.470;2024-02-21T00:52:47;6.10;;;4.25;;
22005;SDS011;11167;46.988;15.470;2024-02-21T00:54:49;6.08;;;4.37;;
22005;SDS011;11167;46.988;15.470;2024-02-21T00:56:50;8.08;;;4.92;;
22005;SDS011;11167;46.988;15.470;2024-02-21T00:58:51;5.87;;;4.37;;
22005;SDS011;11167;46.988;15.470;2024-02-21T01:00:52;7.62;;;4.70;;
22005;SDS011;11167;46.988;15.470;2024-02-21T01:02:53;5.97;;;4.60;;
22005;SDS011;11167;46.988;15.470;2024-02-21T01:04:55;7.30;;;4.60;;
22005;SDS011;11167;46.988;15.470;2024-02-21T01:06:56;7.05;;;4.12;;
22005;SDS011;11167;46.988;15.470;2024-02-21T01:08:58;6.53;;;4.53;;
22005;SDS011;11167;46.988;15.470;2024-02-21T01:10:59;6.25;;;4.25;;
22005;SDS011;11167;46.988;15.470;2024-02-21T01:13:00;7.30;;;4.58;;
22005;SDS011;11167;46.988;15.470;2024-02-21T01:15:02;5.55;;;4.30;;
22005;SDS011;11167;46.988;15.470;2024-02-21T01:17:03;5.78;;;4.50;;
22005;SDS011;11167;46.988;15.470;2024-02-21T01:19:06;6.65;;;4.78;;
22005;SDS011;11167;46.988;15.470;2024-02-21T01:21:07;6.37;;;4.25;;
22005;SDS011;11167;46.988;15.470;2024-02-21T01:23:10;5.58;;;4.08;;
22005;SDS011;11167;46.988;15.470;2024-02-21T01:25:11;6.33;;;4.47;;
22005;SDS011;11167;46.988;15.470;2024-02-21T01:27:12;7.58;;;4.55;;
22005;SDS011;11167;46.988;15.470;2024-02-21T01:29:14;6.37;;;4.58;;
22005;SDS011;11167;46.988;15.470;2024-02-21T01:31:15;5.25;;;4.20;;
22005;SDS011;11167;46.988;15.470;2024-02-21T01:33:16;7.15;;;4.22;;
22005;SDS011;11167;46.988;15.470;2024-02-21T01:35:17;7.70;;;4.65;;
22005;SDS011;11167;46.988;15.470;2024-02-21T01:37:18;6.03;;;4.67;;
22005;SDS011;11167;46.988;15.470;2024-02-21T01:39:20;7.20;;;4.85;;
22005;SDS011;11167;46.988;15.470;2024-02-21T01:41:21;7.08;;;4.70;;
22005;SDS011;11167;46.988;15.470;2024-02-21T01:43:22;5.87;;;4.28;;
22005;SDS011;11167;46.988;15.470;2024-02-21T01:45:23;7.00;;;4.33;;
22005;SDS011;11167;46.988;15.470;2024-02-21T01:47:24;6.20;;;4.75;;
22005;SDS011;11167;46.988;15.470;2024-02-21T01:49:25;7.47;;;4.50;;
22005;SDS011;11167;46.988;15.470;2024-02-21T01:51:27;7.45;;;4.37;;
22005;SDS011;11167;46.988;15.470;2024-02-21T01:53:29;7.33;;;4.17;;
22005;SDS011;11167;46.988;15.470;2024-02-21T01:55:33;6.45;;;4.53;;
22005;SDS011;11167;46.988;15.470;2024-02-21T01:57:34;6.42;;;4.28;;
22005;SDS011;11167;46.988;15.470;2024-02-21T01:59:36;7.85;;;4.50;;
22005;SDS011;11167;46.988;15.470;2024-02-21T02:01:37;7.05;;;4.65;;
22005;SDS011;11167;46.988;15.470;2024-02-21T02:03:39;6.85;;;4.47;;
22005;SDS011;11167;46.988;15.470;2024-02-21T02:05:41;6.85;;;4.90;;
22005;SDS011;11167;46.988;15.470;2024-02-21T02:07:42;7.65;;;5.47;;
22005;SDS011;11167;46.988;15.470;2024-02-21T02:09:43;7.80;;;4.80;;
22005;SDS011;11167;46.988;15.470;2024-02-21T02:11:44;8.13;;;4.70;;
22005;SDS011;11167;46.988;15.470;2024-02-21T02:13:45;6.62;;;4.78;;
22005;SDS011;11167;46.988;15.470;2024-02-21T02:15:47;6.87;;;4.83;;
22005;SDS011;11167;46.988;15.470;2024-02-21T02:17:49;6.83;;;4.72;;
22005;SDS011;11167;46.988;15.470;2024-02-21T02:19:50;6.70;;;4.55;;
22005;SDS011;11167;46.988;15.470;2024-02-21T02:21:53;6.03;;;4.15;;
22005;SDS011;11167;46.988;15.470;2024-02-21T02:23:57;8.35;;;4.90;;
22005;SDS011;11167;46.988;15.470;2024-02-21T02:26:00;6.53;;;4.70;;
22005;SDS011;11167;46.988;15.470;2024-02-21T02:28:05;7.45;;;4.75;;
22005;SDS011;11167;46.988;15.470;2024-02-21T02:30:08;9.23;;;5.00;;
22005;SDS011;11167;46.988;15.470;2024-02-21T02:32:10;6.05;;;4.67;;
22005;SDS011;11167;46.988;15.470;2024-02-21T02:34:11;6.35;;;4.60;;
22005;SDS011;11167;46.988;15.470;2024-02-21T02:36:12;6.17;;;4.35;;
22005;SDS011;11167;46.988;15.470;2024-02-21T02:38:13;6.35;;;4.33;;
22005;SDS011;11167;46.988;15.470;2024-02-21T02:40:15;6.47;;;4.40;;
22005;SDS011;11167;46.988;15.470;2024-02-21T02:42:16;6.47;;;4.12;;
22005;SDS011;11167;46.988;15.470;2024-02-21T02:44:18;5.50;;;4.00;;
22005;SDS011;11167;46.988;15.470;2024-02-21T02:46:19;7.17;;;4.45;;
22005;SDS011;11167;46.988;15.470;2024-02-21T02:48:20;7.70;;;4.58;;
22005;SDS011;11167;46.988;15.470;2024-02-21T02:50:27;5.90;;;4.40;;
22005;SDS011;11167;46.988;15.470;2024-02-21T02:52:25;5.83;;;4.00;;
22005;SDS011;11167;46.988;15.470;2024-02-21T02:54:27;6.17;;;4.33;;
22005;SDS011;11167;46.988;15.470;2024-02-21T02:56:28;5.12;;;3.83;;
22005;SDS011;11167;46.988;15.470;2024-02-21T02:58:29;6.78;;;4.65;;
22005;SDS011;11167;46.988;15.470;2024-02-21T03:00:31;6.83;;;4.15;;
22005;SDS011;11167;46.988;15.470;2024-02-21T03:04:35;7.33;;;4.20;;
22005;SDS011;11167;46.988;15.470;2024-02-21T03:06:36;7.28;;;4.10;;
22005;SDS011;11167;46.988;15.470;2024-02-21T03:08:37;7.25;;;4.15;;
22005;SDS011;11167;46.988;15.470;2024-02-21T03:10:40;9.15;;;4.47;;
22005;SDS011;11167;46.988;15.470;2024-02-21T03:12:42;6.83;;;4.00;;
22005;SDS011;11167;46.988;15.470;2024-02-21T03:14:43;5.12;;;3.72;;
22005;SDS011;11167;46.988;15.470;2024-02-21T03:16:44;7.08;;;3.80;;
22005;SDS011;11167;46.988;15.470;2024-02-21T03:18:45;5.30;;;3.60;;
22005;SDS011;11167;46.988;15.470;2024-02-21T03:20:46;5.85;;;3.83;;
22005;SDS011;11167;46.988;15.470;2024-02-21T03:22:48;6.65;;;4.00;;
22005;SDS011;11167;46.988;15.470;2024-02-21T03:24:50;5.28;;;3.65;;
22005;SDS011;11167;46.988;15.470;2024-02-21T03:26:51;6.33;;;3.65;;
22005;SDS011;11167;46.988;15.470;2024-02-21T03:28:52;4.40;;;3.40;;
22005;SDS011;11167;46.988;15.470;2024-02-21T03:30:53;5.58;;;3.70;;
22005;SDS011;11167;46.988;15.470;2024-02-21T03:32:54;7.70;;;4.05;;
22005;SDS011;11167;46.988;15.470;2024-02-21T03:34:56;5.25;;;4.05;;
22005;SDS011;11167;46.988;15.470;2024-02-21T03:36:57;6.25;;;4.03;;
22005;SDS011;11167;46.988;15.470;2024-02-21T03:38:59;5.78;;;3.75;;
22005;SDS011;11167;46.988;15.470;2024-02-21T03:41:00;5.58;;;3.67;;
22005;SDS011;11167;46.988;15.470;2024-02-21T03:43:02;5.22;;;3.40;;
22005;SDS011;11167;46.988;15.470;2024-02-21T03:45:04;5.72;;;3.98;;
22005;SDS011;11167;46.988;15.470;2024-02-21T03:47:05;4.42;;;3.60;;
22005;SDS011;11167;46.988;15.470;2024-02-21T03:49:07;6.40;;;3.62;;
22005;SDS011;11167;46.988;15.470;2024-02-21T03:51:08;3.52;;;2.95;;
22005;SDS011;11167;46.988;15.470;2024-02-21T03:53:10;4.47;;;3.10;;
22005;SDS011;11167;46.988;15.470;2024-02-21T03:55:11;4.20;;;2.98;;
22005;SDS011;11167;46.988;15.470;2024-02-21T03:57:12;4.80;;;3.22;;
22005;SDS011;11167;46.988;15.470;2024-02-21T03:59:13;4.55;;;3.02;;
22005;SDS011;11167;46.988;15.470;2024-02-21T04:01:15;5.87;;;3.47;;
22005;SDS011;11167;46.988;15.470;2024-02-21T04:03:19;8.13;;;3.72;;
22005;SDS011;11167;46.988;15.470;2024-02-21T04:05:20;4.65;;;3.20;;
22005;SDS011;11167;46.988;15.470;2024-02-21T04:07:21;4.05;;;3.05;;
22005;SDS011;11167;46.988;15.470;2024-02-21T04:09:22;4.87;;;2.75;;
22005;SDS011;11167;46.988;15.470;2024-02-21T04:11:23;5.15;;;3.50;;
22005;SDS011;11167;46.988;15.470;2024-02-21T04:13:25;6.05;;;3.62;;
22005;SDS011;11167;46.988;15.470;2024-02-21T04:15:26;4.67;;;3.25;;
22005;SDS011;11167;46.988;15.470;2024-02-21T04:17:27;5.67;;;3.50;;
22005;SDS011;11167;46.988;15.470;2024-02-21T04:19:28;6.35;;;4.03;;
22005;SDS011;11167;46.988;15.470;2024-02-21T04:21:32;5.07;;;3.37;;
22005;SDS011;11167;46.988;15.470;2024-02-21T04:23:33;5.90;;;3.33;;
22005;SDS011;11167;46.988;15.470;2024-02-21T04:25:35;5.53;;;3.62;;
22005;SDS011;11167;46.988;15.470;2024-02-21T04:27:41;4.45;;;3.10;;
22005;SDS011;11167;46.988;15.470;2024-02-21T04:29:40;5.65;;;3.65;;
22005;SDS011;11167;46.988;15.470;2024-02-21T04:31:42;4.58;;;3.40;;
22005;SDS011;11167;46.988;15.470;2024-02-21T04:33:43;5.25;;;3.40;;
22005;SDS011;11167;46.988;15.470;2024-02-21T04:35:44;6.00;;;3.67;;
22005;SDS011;11167;46.988;15.470;2024-02-21T04:37:45;4.78;;;3.55;;
22005;SDS011;11167;46.988;15.470;2024-02-21T04:39:47;4.40;;;3.25;;
22005;SDS011;11167;46.988;15.470;2024-02-21T04:41:50;4.95;;;3.30;;
22005;SDS011;11167;46.988;15.470;2024-02-21T04:43:51;4.42;;;3.15;;
22005;SDS011;11167;46.988;15.470;2024-02-21T04:45:52;5.92;;;3.80;;
22005;SDS011;11167;46.988;15.470;2024-02-21T04:47:54;5.67;;;3.58;;
22005;SDS011;11167;46.988;15.470;2024-02-21T04:49:55;5.00;;;3.35;;
22005;SDS011;11167;46.988;15.470;2024-02-21T04:51:56;5.33;;;3.33;;
22005;SDS011;11167;46.988;15.470;2024-02-21T04:53:57;5.12;;;3.35;;
22005;SDS011;11167;46.988;15.470;2024-02-21T04:55:59;4.97;;;3.52;;
22005;SDS011;11167;46.988;15.470;2024-02-21T04:58:01;4.35;;;3.20;;
22005;SDS011;11167;46.988;15.470;2024-02-21T05:00:03;4.67;;;3.40;;
22005;SDS011;11167;46.988;15.470;2024-02-21T05:02:05;5.42;;;3.50;;
22005;SDS011;11167;46.988;15.470;2024-02-21T05:04:06;5.22;;;3.77;;
22005;SDS011;11167;46.988;15.470;2024-02-21T05:06:07;7.12;;;3.72;;
22005;SDS011;11167;46.988;15.470;2024-02-21T05:08:09;5.72;;;3.60;;
22005;SDS011;11167;46.988;15.470;2024-02-21T05:10:11;7.53;;;3.62;;
22005;SDS011;11167;46.988;15.470;2024-02-21T05:12:12;6.83;;;3.55;;
22005;SDS011;11167;46.988;15.470;2024-02-21T05:14:13;4.42;;;3.30;;
22005;SDS011;11167;46.988;15.470;2024-02-21T05:16:14;6.62;;;3.87;;
22005;SDS011;11167;46.988;15.470;2024-02-21T05:18:16;5.53;;;3.90;;
22005;SDS011;11167;46.988;15.470;2024-02-21T05:20:17;7.47;;;3.72;;
22005;SDS011;11167;46.988;15.470;2024-02-21T05:22:18;6.65;;;3.95;;
22005;SDS011;11167;46.988;15.470;2024-02-21T05:24:22;6.17;;;3.92;;
22005;SDS011;11167;46.988;15.470;2024-02-21T05:26:23;4.65;;;3.47;;
22005;SDS011;11167;46.988;15.470;2024-02-21T05:28:26;5.95;;;4.00;;
22005;SDS011;11167;46.988;15.470;2024-02-21T05:30:27;6.67;;;3.60;;
22005;SDS011;11167;46.988;15.470;2024-02-21T05:32:29;4.97;;;3.70;;
22005;SDS011;11167;46.988;15.470;2024-02-21T05:34:30;5.25;;;3.60;;
22005;SDS011;11167;46.988;15.470;2024-02-21T05:36:31;5.50;;;3.67;;
22005;SDS011;11167;46.988;15.470;2024-02-21T05:38:32;5.20;;;3.35;;
22005;SDS011;11167;46.988;15.470;2024-02-21T05:40:33;5.87;;;3.40;;
22005;SDS011;11167;46.988;15.470;2024-02-21T05:42:35;5.10;;;3.37;;
22005;SDS011;11167;46.988;15.470;2024-02-21T05:44:36;4.60;;;3.30;;
22005;SDS011;11167;46.988;15.470;2024-02-21T05:46:37;5.08;;;3.45;;
22005;SDS011;11167;46.988;15.470;2024-02-21T05:48:38;5.22;;;3.72;;
22005;SDS011;11167;46.988;15.470;2024-02-21T05:50:39;4.90;;;3.50;;
22005;SDS011;11167;46.988;15.470;2024-02-21T05:52:40;4.85;;;3.47;;
22005;SDS011;11167;46.988;15.470;2024-02-21T05:54:42;5.70;;;3.67;;
22005;SDS011;11167;46.988;15.470;2024-02-21T05:56:44;5.35;;;3.10;;
22005;SDS011;11167;46.988;15.470;2024-02-21T05:58:46;5.42;;;3.00;;
22005;SDS011;11167;46.988;15.470;2024-02-21T06:00:47;5.10;;;3.70;;
22005;SDS011;11167;46.988;15.470;2024-02-21T06:02:48;6.37;;;3.52;;
22005;SDS011;11167;46.988;15.470;2024-02-21T06:04:50;5.47;;;3.77;;
22005;SDS011;11167;46.988;15.470;2024-02-21T06:06:51;4.30;;;3.40;;
22005;SDS011;11167;46.988;15.470;2024-02-21T06:08:53;5.40;;;3.75;;
22005;SDS011;11167;46.988;15.470;2024-02-21T06:10:55;5.95;;;3.70;;
22005;SDS011;11167;46.988;15.470;2024-02-21T06:12:57;5.90;;;3.70;;
22005;SDS011;11167;46.988;15.470;2024-02-21T06:14:58;5.08;;;3.85;;
22005;SDS011;11167;46.988;15.470;2024-02-21T06:16:59;5.28;;;3.77;;
22005;SDS011;11167;46.988;15.470;2024-02-21T06:19:00;6.70;;;3.90;;
22005;SDS011;11167;46.988;15.470;2024-02-21T06:21:01;5.83;;;3.65;;
22005;SDS011;11167;46.988;15.470;2024-02-21T06:23:03;5.62;;;4.08;;
22005;SDS011;11167;46.988;15.470;2024-02-21T06:25:04;7.60;;;4.10;;
22005;SDS011;11167;46.988;15.470;2024-02-21T06:27:05;6.87;;;4.17;;
22005;SDS011;11167;46.988;15.470;2024-02-21T06:29:07;7.60;;;4.20;;
22005;SDS011;11167;46.988;15.470;2024-02-21T06:31:08;5.50;;;4.12;;
22005;SDS011;11167;46.988;15.470;2024-02-21T06:33:09;6.60;;;4.67;;
22005;SDS011;11167;46.988;15.470;2024-02-21T06:35:10;7.45;;;5.30;;
22005;SDS011;11167;46.988;15.470;2024-02-21T06:37:12;8.73;;;5.47;;
22005;SDS011;11167;46.988;15.470;2024-02-21T06:39:13;10.03;;;6.37;;
22005;SDS011;11167;46.988;15.470;2024-02-21T06:41:17;9.70;;;6.55;;
22005;SDS011;11167;46.988;15.470;2024-02-21T06:43:20;10.85;;;7.00;;
22005;SDS011;11167;46.988;15.470;2024-02-21T06:45:22;9.23;;;6.35;;
22005;SDS011;11167;46.988;15.470;2024-02-21T06:47:23;11.08;;;6.20;;
22005;SDS011;11167;46.988;15.470;2024-02-21T06:49:24;8.38;;;5.30;;
22005;SDS011;11167;46.988;15.470;2024-02-21T06:51:25;8.35;;;5.50;;
22005;SDS011;11167;46.988;15.470;2024-02-21T06:53:27;7.67;;;5.22;;
22005;SDS011;11167;46.988;15.470;2024-02-21T06:55:29;7.30;;;5.22;;
22005;SDS011;11167;46.988;15.470;2024-02-21T06:57:30;7.72;;;5.28;;
22005;SDS011;11167;46.988;15.470;2024-02-21T06:59:31;8.20;;;4.80;;
22005;SDS011;11167;46.988;15.470;2024-02-21T07:01:32;7.40;;;4.95;;
22005;SDS011;11167;46.988;15.470;2024-02-21T07:03:33;7.12;;;4.65;;
22005;SDS011;11167;46.988;15.470;2024-02-21T07:05:34;6.03;;;4.60;;
22005;SDS011;11167;46.988;15.470;2024-02-21T07:07:35;7.97;;;4.85;;
22005;SDS011;11167;46.988;15.470;2024-02-21T07:09:36;6.53;;;4.90;;
22005;SDS011;11167;46.988;15.470;2024-02-21T07:11:38;6.30;;;4.87;;
22005;SDS011;11167;46.988;15.470;2024-02-21T07:13:39;6.70;;;5.25;;
22005;SDS011;11167;46.988;15.470;2024-02-21T07:15:40;7.97;;;5.05;;
22005;SDS011;11167;46.988;15.470;2024-02-21T07:17:42;6.87;;;4.97;;
22005;SDS011;11167;46.988;15.470;2024-02-21T07:19:43;7.35;;;5.47;;
22005;SDS011;11167;46.988;15.470;2024-02-21T07:21:45;7.28;;;4.90;;
22005;SDS011;11167;46.988;15.470;2024-02-21T07:23:46;8.53;;;5.50;;
22005;SDS011;11167;46.988;15.470;2024-02-21T07:25:47;6.40;;;4.80;;
22005;SDS011;11167;46.988;15.470;2024-02-21T07:27:48;6.60;;;4.80;;
22005;SDS011;11167;46.988;15.470;2024-02-21T07:29:49;7.05;;;4.78;;
22005;SDS011;11167;46.988;15.470;2024-02-21T07:31:50;6.10;;;4.40;;
22005;SDS011;11167;46.988;15.470;2024-02-21T07:33:52;7.92;;;4.95;;
22005;SDS011;11167;46.988;15.470;2024-02-21T07:35:54;7.35;;;4.87;;
22005;SDS011;11167;46.988;15.470;2024-02-21T07:37:55;7.03;;;4.45;;
22005;SDS011;11167;46.988;15.470;2024-02-21T07:39:57;7.10;;;4.37;;
22005;SDS011;11167;46.988;15.470;2024-02-21T07:41:58;5.12;;;3.40;;
22005;SDS011;11167;46.988;15.470;2024-02-21T07:43:59;6.85;;;4.60;;
22005;SDS011;11167;46.988;15.470;2024-02-21T07:46:00;5.72;;;4.08;;
22005;SDS011;11167;46.988;15.470;2024-02-21T07:48:02;5.08;;;4.00;;
22005;SDS011;11167;46.988;15.470;2024-02-21T07:50:03;5.70;;;3.95;;
22005;SDS011;11167;46.988;15.470;2024-02-21T07:52:05;6.70;;;4.62;;
22005;SDS011;11167;46.988;15.470;2024-02-21T07:54:06;6.10;;;4.22;;
22005;SDS011;11167;46.988;15.470;2024-02-21T07:56:07;6.22;;;4.45;;
22005;SDS011;11167;46.988;15.470;2024-02-21T07:58:08;7.12;;;4.55;;
22005;SDS011;11167;46.988;15.470;2024-02-21T08:00:10;8.03;;;5.10;;
22005;SDS011;11167;46.988;15.470;2024-02-21T08:02:14;6.47;;;4.28;;
22005;SDS011;11167;46.988;15.470;2024-02-21T08:04:16;5.53;;;4.00;;
22005;SDS011;11167;46.988;15.470;2024-02-21T08:06:17;5.83;;;4.10;;
22005;SDS011;11167;46.988;15.470;2024-02-21T08:08:18;5.37;;;3.87;;
22005;SDS011;11167;46.988;15.470;2024-02-21T08:10:21;6.42;;;4.05;;
22005;SDS011;11167;46.988;15.470;2024-02-21T08:12:22;6.65;;;4.17;;
22005;SDS011;11167;46.988;15.470;2024-02-21T08:14:23;7.20;;;4.12;;
22005;SDS011;11167;46.988;15.470;2024-02-21T08:16:26;6.58;;;3.72;;
22005;SDS011;11167;46.988;15.470;2024-02-21T08:18:27;5.50;;;3.62;;
22005;SDS011;11167;46.988;15.470;2024-02-21T08:20:28;6.05;;;3.83;;
22005;SDS011;11167;46.988;15.470;2024-02-21T08:22:29;7.45;;;3.85;;
22005;SDS011;11167;46.988;15.470;2024-02-21T08:24:31;5.25;;;3.67;;
22005;SDS011;11167;46.988;15.470;2024-02-21T08:26:33;6.00;;;3.80;;
22005;SDS011;11167;46.988;15.470;2024-02-21T08:28:34;5.12;;;3.40;;
22005;SDS011;11167;46.988;15.470;2024-02-21T08:30:35;6.75;;;3.75;;
22005;SDS011;11167;46.988;15.470;2024-02-21T08:32:36;5.30;;;3.10;;
22005;SDS011;11167;46.988;15.470;2024-02-21T08:34:37;6.72;;;3.10;;
22005;SDS011;11167;46.988;15.470;2024-02-21T08:36:39;5.45;;;2.72;;
22005;SDS011;11167;46.988;15.470;2024-02-21T08:38:40;4.17;;;2.70;;
22005;SDS011;11167;46.988;15.470;2024-02-21T08:40:41;4.67;;;2.62;;
22005;SDS011;11167;46.988;15.470;2024-02-21T08:42:43;4.05;;;2.70;;
22005;SDS011;11167;46.988;15.470;2024-02-21T08:44:44;3.45;;;2.47;;
22005;SDS011;11167;46.988;15.470;2024-02-21T08:46:46;5.10;;;2.92;;
22005;SDS011;11167;46.988;15.470;2024-02-21T08:48:47;3.87;;;2.50;;
22005;SDS011;11167;46.988;15.470;2024-02-21T08:50:48;3.95;;;2.62;;
22005;SDS011;11167;46.988;15.470;2024-02-21T08:52:49;2.90;;;2.27;;
22005;SDS011;11167;46.988;15.470;2024-02-21T08:54:51;4.05;;;2.58;;
22005;SDS011;11167;46.988;15.470;2024-02-21T08:56:54;3.45;;;2.35;;
22005;SDS011;11167;46.988;15.470;2024-02-21T08:58:55;3.95;;;2.40;;
22005;SDS011;11167;46.988;15.470;2024-02-21T09:00:58;3.90;;;2.42;;
22005;SDS011;11167;46.988;15.470;2024-02-21T09:02:59;4.45;;;2.27;;
22005;SDS011;11167;46.988;15.470;2024-02-21T09:05:00;4.12;;;2.50;;
22005;SDS011;11167;46.988;15.470;2024-02-21T09:07:01;3.25;;;2.50;;
22005;SDS011;11167;46.988;15.470;2024-02-21T09:09:03;3.37;;;2.10;;
22005;SDS011;11167;46.988;15.470;2024-02-21T09:11:05;4.05;;;2.50;;
22005;SDS011;11167;46.988;15.470;2024-02-21T09:13:07;4.15;;;2.67;;
22005;SDS011;11167;46.988;15.470;2024-02-21T09:15:09;3.47;;;2.40;;
22005;SDS011;11167;46.988;15.470;2024-02-21T09:17:11;3.80;;;2.42;;
22005;SDS011;11167;46.988;15.470;2024-02-21T09:19:13;4.58;;;2.70;;
22005;SDS011;11167;46.988;15.470;2024-02-21T09:21:14;4.28;;;2.55;;
22005;SDS011;11167;46.988;15.470;2024-02-21T09:23:16;3.95;;;2.75;;
22005;SDS011;11167;46.988;15.470;2024-02-21T09:25:17;3.70;;;2.60;;
22005;SDS011;11167;46.988;15.470;2024-02-21T09:27:19;4.22;;;2.50;;
22005;SDS011;11167;46.988;15.470;2024-02-21T09:29:20;3.90;;;2.60;;
22005;SDS011;11167;46.988;15.470;2024-02-21T09:31:21;3.12;;;2.40;;
22005;SDS011;11167;46.988;15.470;2024-02-21T09:33:22;4.25;;;2.87;;
22005;SDS011;11167;46.988;15.470;2024-02-21T09:35:23;4.30;;;2.80;;
22005;SDS011;11167;46.988;15.470;2024-02-21T09:37:26;4.08;;;2.45;;
22005;SDS011;11167;46.988;15.470;2024-02-21T09:39:28;5.37;;;2.80;;
22005;SDS011;11167;46.988;15.470;2024-02-21T09:41:29;4.53;;;2.15;;
22005;SDS011;11167;46.988;15.470;2024-02-21T09:43:30;4.87;;;2.70;;
22005;SDS011;11167;46.988;15.470;2024-02-21T09:45:33;4.80;;;2.47;;
22005;SDS011;11167;46.988;15.470;2024-02-21T09:50:05;3.85;;;2.27;;
22005;SDS011;11167;46.988;15.470;2024-02-21T09:52:07;6.15;;;2.65;;
22005;SDS011;11167;46.988;15.470;2024-02-21T09:54:08;3.42;;;2.12;;
22005;SDS011;11167;46.988;15.470;2024-02-21T09:56:09;3.95;;;2.50;;
22005;SDS011;11167;46.988;15.470;2024-02-21T09:58:11;4.67;;;2.60;;
22005;SDS011;11167;46.988;15.470;2024-02-21T10:00:13;4.17;;;2.45;;
22005;SDS011;11167;46.988;15.470;2024-02-21T10:04:20;4.45;;;2.12;;
22005;SDS011;11167;46.988;15.470;2024-02-21T10:06:21;4.17;;;2.30;;
22005;SDS011;11167;46.988;15.470;2024-02-21T10:08:23;3.92;;;2.25;;
22005;SDS011;11167;46.988;15.470;2024-02-21T10:10:24;3.55;;;2.02;;
22005;SDS011;11167;46.988;15.470;2024-02-21T10:12:25;2.85;;;1.85;;
22005;SDS011;11167;46.988;15.470;2024-02-21T10:14:26;3.60;;;1.92;;
22005;SDS011;11167;46.988;15.470;2024-02-21T10:16:27;2.77;;;1.50;;
22005;SDS011;11167;46.988;15.470;2024-02-21T10:18:28;2.50;;;1.70;;
22005;SDS011;11167;46.988;15.470;2024-02-21T10:20:30;2.80;;;1.75;;
22005;SDS011;11167;46.988;15.470;2024-02-21T10:22:31;3.37;;;1.75;;
22005;SDS011;11167;46.988;15.470;2024-02-21T10:24:35;2.80;;;1.87;;
22005;SDS011;11167;46.988;15.470;2024-02-21T10:26:42;3.45;;;2.15;;
22005;SDS011;11167;46.988;15.470;2024-02-21T10:28:44;4.67;;;1.98;;
22005;SDS011;11167;46.988;15.470;2024-02-21T10:30:49;2.65;;;1.70;;
22005;SDS011;11167;46.988;15.470;2024-02-21T10:32:52;3.10;;;1.92;;
22005;SDS011;11167;46.988;15.470;2024-02-21T10:35:04;2.98;;;1.90;;
22005;SDS011;11167;46.988;15.470;2024-02-21T10:37:09;3.42;;;1.77;;
22005;SDS011;11167;46.988;15.470;2024-02-21T10:39:10;2.67;;;1.72;;
22005;SDS011;11167;46.988;15.470;2024-02-21T10:41:13;2.72;;;1.70;;
22005;SDS011;11167;46.988;15.470;2024-02-21T10:43:16;2.95;;;1.82;;
22005;SDS011;11167;46.988;15.470;2024-02-21T10:45:19;2.12;;;1.60;;
22005;SDS011;11167;46.988;15.470;2024-02-21T10:47:21;2.10;;;1.50;;
22005;SDS011;11167;46.988;15.470;2024-02-21T10:49:27;2.17;;;1.50;;
22005;SDS011;11167;46.988;15.470;2024-02-21T10:51:33;2.05;;;1.50;;
22005;SDS011;11167;46.988;15.470;2024-02-21T10:53:38;2.47;;;1.72;;
22005;SDS011;11167;46.988;15.470;2024-02-21T10:55:43;2.52;;;1.50;;
22005;SDS011;11167;46.988;15.470;2024-02-21T10:58:08;3.00;;;1.70;;
22005;SDS011;11167;46.988;15.470;2024-02-21T11:00:11;2.80;;;1.65;;
22005;SDS011;11167;46.988;15.470;2024-02-21T11:02:16;3.35;;;1.80;;
22005;SDS011;11167;46.988;15.470;2024-02-21T11:04:17;3.17;;;1.80;;
22005;SDS011;11167;46.988;15.470;2024-02-21T11:06:19;2.30;;;1.50;;
22005;SDS011;11167;46.988;15.470;2024-02-21T11:08:22;2.47;;;1.47;;
22005;SDS011;11167;46.988;15.470;2024-02-21T11:10:25;4.17;;;1.60;;
22005;SDS011;11167;46.988;15.470;2024-02-21T11:12:28;1.67;;;1.32;;
22005;SDS011;11167;46.988;15.470;2024-02-21T11:14:29;2.72;;;1.50;;
22005;SDS011;11167;46.988;15.470;2024-02-21T11:16:41;3.62;;;1.92;;
22005;SDS011;11167;46.988;15.470;2024-02-21T11:18:39;2.08;;;1.35;;
22005;SDS011;11167;46.988;15.470;2024-02-21T11:20:49;2.40;;;1.82;;
22005;SDS011;11167;46.988;15.470;2024-02-21T11:22:45;7.90;;;2.08;;
22005;SDS011;11167;46.988;15.470;2024-02-21T11:24:48;3.37;;;1.77;;
22005;SDS011;11167;46.988;15.470;2024-02-21T11:26:49;2.52;;;1.65;;
22005;SDS011;11167;46.988;15.470;2024-02-21T11:29:00;3.45;;;1.82;;
22005;SDS011;11167;46.988;15.470;2024-02-21T11:31:13;3.27;;;1.52;;
22005;SDS011;11167;46.988;15.470;2024-02-21T11:33:15;3.05;;;1.65;;
22005;SDS011;11167;46.988;15.470;2024-02-21T11:35:20;2.35;;;1.40;;
22005;SDS011;11167;46.988;15.470;2024-02-21T11:37:23;2.92;;;1.50;;
22005;SDS011;11167;46.988;15.470;2024-02-21T11:39:26;1.98;;;1.30;;
22005;SDS011;11167;46.988;15.470;2024-02-21T11:41:27;2.95;;;1.50;;
22005;SDS011;11167;46.988;15.470;2024-02-21T11:43:28;1.98;;;1.47;;
22005;SDS011;11167;46.988;15.470;2024-02-21T11:45:30;2.05;;;1.35;;
22005;SDS011;11167;46.988;15.470;2024-02-21T11:47:32;1.95;;;1.30;;
22005;SDS011;11167;46.988;15.470;2024-02-21T11:49:46;2.17;;;1.30;;
22005;SDS011;11167;46.988;15.470;2024-02-21T11:52:04;1.55;;;1.10;;
22005;SDS011;11167;46.988;15.470;2024-02-21T11:54:05;2.40;;;1.32;;
22005;SDS011;11167;46.988;15.470;2024-02-21T11:56:07;2.60;;;1.30;;
22005;SDS011;11167;46.988;15.470;2024-02-21T11:58:08;1.77;;;1.20;;
22005;SDS011;11167;46.988;15.470;2024-02-21T12:00:17;2.15;;;1.22;;
22005;SDS011;11167;46.988;15.470;2024-02-21T12:02:16;2.70;;;1.47;;
22005;SDS011;11167;46.988;15.470;2024-02-21T12:04:22;2.40;;;1.30;;
22005;SDS011;11167;46.988;15.470;2024-02-21T12:06:26;2.02;;;1.30;;
22005;SDS011;11167;46.988;15.470;2024-02-21T12:08:40;1.98;;;1.20;;